Wetterverlauf

Letzte Wetterlage 02.10.2014 12:01
Wetterdiagramm
Tabellarische Darstellung
Datum Temperatur Windchill Feuchte Luftdruck Windrichtung Windstärke Niederschlag
02.10.2014 12:11 20,1 °C 20,1 °C 80 % 1029,9 hPa 315 0.3 0,00 mm
02.10.2014 12:01 20,1 °C 20,1 °C 81 % 1030,0 hPa 270 0.3 0,00 mm
02.10.2014 11:51 20,0 °C 20,0 °C 81 % 1030,0 hPa 270 1.0 0,00 mm
02.10.2014 11:41 19,7 °C 19,7 °C 84 % 1030,1 hPa 225 0.7 0,00 mm
02.10.2014 11:31 19,4 °C 19,4 °C 85 % 1030,2 hPa 90 0.0 0,00 mm
02.10.2014 11:21 19,1 °C 19,1 °C 88 % 1030,2 hPa 270 0.3 0,00 mm
02.10.2014 11:11 18,4 °C 18,4 °C 92 % 1030,2 hPa 180 0.7 0,00 mm
02.10.2014 11:01 17,8 °C 17,8 °C 93 % 1030,3 hPa 180 0.3 0,00 mm
02.10.2014 10:56 17,5 °C 17,5 °C 94 % 1030,4 hPa 225 0.7 0,00 mm
02.10.2014 10:51 17,3 °C 17,3 °C 94 % 1030,3 hPa 158 0.7 0,00 mm
02.10.2014 10:41 16,8 °C 16,8 °C 96 % 1030,3 hPa 225 0.3 0,00 mm
02.10.2014 10:31 16,3 °C 16,3 °C 97 % 1030,3 hPa 225 0.3 0,00 mm
02.10.2014 10:21 15,9 °C 15,9 °C 99 % 1030,3 hPa 315 0.7 0,00 mm
02.10.2014 10:11 15,5 °C 15,5 °C 99 % 1030,3 hPa 315 1.0 0,00 mm
02.10.2014 10:01 15,3 °C 15,3 °C 99 % 1030,1 hPa 270 0.3 0,00 mm
02.10.2014 09:56 15,2 °C 15,2 °C 99 % 1030,2 hPa 315 0.3 0,00 mm
02.10.2014 09:51 15,1 °C 15,1 °C 99 % 1030,1 hPa 225 1.4 0,00 mm
02.10.2014 09:41 14,8 °C 14,8 °C 99 % 1030,1 hPa 90 0.0 0,00 mm
02.10.2014 09:31 14,4 °C 14,4 °C 99 % 1029,9 hPa 90 0.7 0,00 mm
02.10.2014 09:21 14,0 °C 14,0 °C 99 % 1030,0 hPa 180 0.3 0,00 mm
02.10.2014 09:11 13,7 °C 13,7 °C 99 % 1029,9 hPa 180 1.4 0,00 mm
02.10.2014 09:01 13,4 °C 13,4 °C 99 % 1029,9 hPa 135 0.7 0,00 mm
02.10.2014 08:51 13,2 °C 13,2 °C 99 % 1029,9 hPa 180 0.7 0,00 mm
02.10.2014 08:41 13,0 °C 13,0 °C 99 % 1029,7 hPa 180 0.7 0,00 mm
02.10.2014 08:31 12,9 °C 12,9 °C 97 % 1029,7 hPa 135 0.7 0,00 mm
Empfehlen Sie wetter.com
| Mehr
Neue Wetterwarnung

Neue Niederschlagsmeldung
Neue Meldung
Regen Liveticker
    sehr starker Regen/Gewitter
    starker Regen/Gewitter
    mäßiger bis starker Regen
    mäßiger Regen
    leichter bis mäßiger Regen
    kein Regen